Time;durP1;ratioP1;P1;durP2;ratioP2;P2;SDS_P1;SDS_P2;PMS_P1;PMS_P2;Temp;Humidity;BMP_temperature;BMP_pressure;BME280_temperature;BME280_humidity;BME280_pressure;Samples;Min_cycle;Max_cycle;Signal;HPM_P1;HPM_P2
2023/05/05 00:01:08;;;;;;;5.32;2.13;;;;;;;;;;5091834;28;20055;-66
2023/05/05 00:03:38;;;;;;;6.50;2.50;;;;;;;;;;5078582;28;20055;-64
2023/05/05 00:06:09;;;;;;;2.90;1.73;;;;;;;;;;5114185;28;20058;-66
2023/05/05 00:08:39;;;;;;;5.07;2.15;;;;;;;;;;5095422;28;20402;-64
2023/05/05 00:11:09;;;;;;;3.20;1.77;;;;;;;;;;5114330;28;20035;-65
2023/05/05 00:13:39;;;;;;;2.70;1.85;;;;;;;;;;5091357;28;20063;-65
2023/05/05 00:16:10;;;;;;;3.83;1.73;;;;;;;;;;5042286;28;20419;-66
2023/05/05 00:18:40;;;;;;;2.00;1.05;;;;;;;;;;4989254;28;20055;-63
2023/05/05 00:21:10;;;;;;;2.35;1.25;;;;;;;;;;5071241;28;20067;-64
2023/05/05 00:23:41;;;;;;;4.28;1.35;;;;;;;;;;5071152;28;20467;-67
2023/05/05 00:26:12;;;;;;;1.25;0.70;;;;;;;;;;5071139;28;20057;-65
2023/05/05 00:28:48;;;;;;;0.93;0.65;;;;;;;;;;5055266;28;20408;-65
2023/05/05 00:31:18;;;;;;;0.93;0.60;;;;;;;;;;5070702;28;20065;-65
2023/05/05 00:33:48;;;;;;;1.90;0.60;;;;;;;;;;5070650;28;20408;-65
2023/05/05 00:36:18;;;;;;;5.82;0.70;;;;;;;;;;5070591;28;20052;-65
2023/05/05 00:38:48;;;;;;;1.45;0.80;;;;;;;;;;5070629;28;20056;-66
2023/05/05 00:41:18;;;;;;;1.50;0.90;;;;;;;;;;4997575;28;20053;-65
2023/05/05 00:43:48;;;;;;;2.28;0.57;;;;;;;;;;4974814;28;20122;-65
2023/05/05 00:46:27;;;;;;;1.55;0.75;;;;;;;;;;4990971;28;20050;-65
2023/05/05 00:48:58;;;;;;;2.00;0.68;;;;;;;;;;4974563;28;20434;-65
2023/05/05 00:51:28;;;;;;;2.08;0.50;;;;;;;;;;5002531;28;20058;-65
2023/05/05 00:53:59;;;;;;;1.58;0.70;;;;;;;;;;4990902;28;20046;-65
2023/05/05 00:56:30;;;;;;;2.58;0.73;;;;;;;;;;5010215;28;20061;-65
2023/05/05 00:59:02;;;;;;;0.68;0.40;;;;;;;;;;4993858;28;20057;-66
2023/05/05 01:01:34;;;;;;;0.90;0.40;;;;;;;;;;5010639;28;20062;-65
2023/05/05 01:04:04;;;;;;;0.90;0.40;;;;;;;;;;5010837;28;20038;-65
2023/05/05 01:07:09;;;;;;;0.35;0.30;;;;;;;;;;4946116;28;20054;-65
2023/05/05 01:09:39;;;;;;;0.47;0.35;;;;;;;;;;4971145;28;20062;-65
2023/05/05 01:12:22;;;;;;;0.85;0.50;;;;;;;;;;4971190;28;20055;-65
2023/05/05 01:15:04;;;;;;;0.77;0.40;;;;;;;;;;4970608;28;20058;-66
2023/05/05 01:17:41;;;;;;;0.57;0.20;;;;;;;;;;4971102;28;20055;-65
2023/05/05 01:20:20;;;;;;;0.50;0.20;;;;;;;;;;5009949;28;20061;-65
2023/05/05 01:23:00;;;;;;;0.45;0.20;;;;;;;;;;4993876;28;20418;-65
2023/05/05 01:25:57;;;;;;;0.40;0.20;;;;;;;;;;4977554;28;20054;-65
2023/05/05 01:29:06;;;;;;;0.93;0.30;;;;;;;;;;5009298;28;20502;-63
2023/05/05 01:31:52;;;;;;;0.75;0.30;;;;;;;;;;5039048;28;20072;-65
2023/05/05 01:34:31;;;;;;;0.30;0.20;;;;;;;;;;5009416;28;20053;-65
2023/05/05 01:37:07;;;;;;;3.13;0.55;;;;;;;;;;5028846;28;20409;-65
2023/05/05 01:39:40;;;;;;;0.57;0.22;;;;;;;;;;5029351;28;20053;-65
2023/05/05 01:42:13;;;;;;;0.20;0.20;;;;;;;;;;5029418;28;20057;-65
2023/05/05 01:44:45;;;;;;;0.30;0.10;;;;;;;;;;5009235;28;20050;-65
2023/05/05 01:47:18;;;;;;;0.60;0.30;;;;;;;;;;5009579;28;20065;-64
2023/05/05 01:49:50;;;;;;;1.55;0.20;;;;;;;;;;4993185;28;20064;-64
2023/05/05 01:52:21;;;;;;;;;;;;;;;;;;5010056;28;20062;-64
2023/05/05 01:54:52;;;;;;;1.17;0.15;;;;;;;;;;5009090;28;19944;-64
2023/05/05 01:57:25;;;;;;;0.50;0.40;;;;;;;;;;4993274;28;20064;-64
2023/05/05 01:59:57;;;;;;;2.47;0.40;;;;;;;;;;5009298;28;20065;-64
2023/05/05 02:02:28;;;;;;;;;;;;;;;;;;4989819;28;20046;-65
2023/05/05 02:04:59;;;;;;;0.70;0.50;;;;;;;;;;4989617;28;19922;-64
2023/05/05 02:07:30;;;;;;;0.95;0.30;;;;;;;;;;4937781;28;20054;-64
2023/05/05 02:10:02;;;;;;;0.28;0.20;;;;;;;;;;4982119;28;20233;-64
2023/05/05 02:12:34;;;;;;;1.77;0.20;;;;;;;;;;4936696;28;20055;-64
2023/05/05 02:15:05;;;;;;;0.30;0.30;;;;;;;;;;4937303;28;20392;-64
2023/05/05 02:17:36;;;;;;;0.82;0.22;;;;;;;;;;4970287;28;20403;-64
2023/05/05 02:20:08;;;;;;;0.35;0.25;;;;;;;;;;4969846;28;20055;-65
2023/05/05 02:22:38;;;;;;;;;;;;;;;;;;4970151;28;20522;-64
2023/05/05 02:25:09;;;;;;;1.13;0.20;;;;;;;;;;4968938;28;19929;-64
2023/05/05 02:27:43;;;;;;;0.50;0.20;;;;;;;;;;4989102;28;20054;-64
2023/05/05 02:30:17;;;;;;;0.32;0.20;;;;;;;;;;4989197;28;20059;-64
2023/05/05 02:32:57;;;;;;;3.45;0.32;;;;;;;;;;5001578;28;20053;-64
2023/05/05 02:35:35;;;;;;;1.20;0.57;;;;;;;;;;4988645;28;20054;-64
2023/05/05 02:38:16;;;;;;;0.30;0.25;;;;;;;;;;4988678;28;20046;-64
2023/05/05 02:40:51;;;;;;;0.43;0.28;;;;;;;;;;4980173;28;20042;-64
2023/05/05 02:43:23;;;;;;;0.82;0.30;;;;;;;;;;4956647;28;20543;-64
2023/05/05 02:45:54;;;;;;;0.38;0.30;;;;;;;;;;5004474;28;20053;-64
2023/05/05 02:48:24;;;;;;;2.28;0.40;;;;;;;;;;5008635;28;20066;-64
2023/05/05 02:50:54;;;;;;;2.92;0.50;;;;;;;;;;5008372;28;20406;-64
2023/05/05 02:53:31;;;;;;;0.65;0.20;;;;;;;;;;5027855;28;20049;-65
2023/05/05 02:56:10;;;;;;;0.88;0.60;;;;;;;;;;5008388;28;20057;-64
2023/05/05 02:59:01;;;;;;;2.88;0.30;;;;;;;;;;5008197;28;20080;-65
2023/05/05 03:01:33;;;;;;;;;;;;;;;;;;5008681;28;20138;-66
2023/05/05 03:04:14;;;;;;;0.10;0.10;;;;;;;;;;4988267;28;19929;-65
2023/05/05 03:06:56;;;;;;;1.17;0.30;;;;;;;;;;4930869;29;20063;-65
2023/05/05 03:09:50;;;;;;;0.60;0.20;;;;;;;;;;4930325;29;20605;-65
2023/05/05 03:12:25;;;;;;;1.00;0.20;;;;;;;;;;4949690;28;20059;-66
2023/05/05 03:15:14;;;;;;;0.30;0.28;;;;;;;;;;4949033;28;20047;-65
2023/05/05 03:17:45;;;;;;;3.70;0.20;;;;;;;;;;4968580;28;20471;-66
2023/05/05 03:20:16;;;;;;;0.70;0.28;;;;;;;;;;4988055;28;20058;-65
2023/05/05 03:22:49;;;;;;;1.88;0.30;;;;;;;;;;4984376;28;20131;-66
2023/05/05 03:25:19;;;;;;;0.75;0.30;;;;;;;;;;4952820;28;20484;-65
2023/05/05 03:27:49;;;;;;;3.03;0.40;;;;;;;;;;4969052;28;20075;-65
2023/05/05 03:30:22;;;;;;;0.95;0.45;;;;;;;;;;4968620;28;20573;-63
2023/05/05 03:32:52;;;;;;;3.63;0.40;;;;;;;;;;4946601;29;20553;-63
2023/05/05 03:35:22;;;;;;;2.42;0.30;;;;;;;;;;4877532;29;20055;-63
2023/05/05 03:37:54;;;;;;;4.68;1.25;;;;;;;;;;4895341;29;20059;-63
2023/05/05 03:40:25;;;;;;;3.63;0.38;;;;;;;;;;4865173;29;20040;-63
2023/05/05 03:43:12;;;;;;;0.30;0.20;;;;;;;;;;4877313;29;20049;-64
2023/05/05 03:45:42;;;;;;;4.88;0.50;;;;;;;;;;4881732;29;20075;-63
2023/05/05 03:48:12;;;;;;;2.95;0.28;;;;;;;;;;4861226;29;20069;-63
2023/05/05 03:50:45;;;;;;;1.65;0.30;;;;;;;;;;4874556;29;20054;-64
2023/05/05 03:53:17;;;;;;;0.90;0.40;;;;;;;;;;4877314;29;20052;-64
2023/05/05 03:55:48;;;;;;;1.13;0.40;;;;;;;;;;4905167;29;20053;-64
2023/05/05 03:58:18;;;;;;;2.45;0.30;;;;;;;;;;4958246;28;20057;-64
2023/05/05 04:00:49;;;;;;;1.90;0.50;;;;;;;;;;4904648;29;20056;-64
2023/05/05 04:03:20;;;;;;;0.60;0.30;;;;;;;;;;4952755;28;20059;-64
2023/05/05 04:05:51;;;;;;;0.50;0.20;;;;;;;;;;4933166;29;20052;-64
2023/05/05 04:08:22;;;;;;;2.05;0.30;;;;;;;;;;4917864;29;20044;-64
2023/05/05 04:10:52;;;;;;;2.15;0.30;;;;;;;;;;4887733;29;20627;-64
2023/05/05 04:13:23;;;;;;;1.27;0.60;;;;;;;;;;4883763;29;20053;-64
2023/05/05 04:15:53;;;;;;;4.60;0.43;;;;;;;;;;4895594;29;20052;-63
2023/05/05 04:18:23;;;;;;;1.10;0.30;;;;;;;;;;4864931;29;20056;-63
2023/05/05 04:20:53;;;;;;;2.45;0.28;;;;;;;;;;4867586;29;20057;-63
2023/05/05 04:23:23;;;;;;;4.22;0.40;;;;;;;;;;4887739;29;20218;-63
2023/05/05 04:25:54;;;;;;;4.75;0.47;;;;;;;;;;4879857;29;20502;-64
2023/05/05 04:28:26;;;;;;;0.68;0.40;;;;;;;;;;4891952;29;20053;-63
2023/05/05 04:30:56;;;;;;;2.08;0.40;;;;;;;;;;4914181;29;20056;-63
2023/05/05 04:33:26;;;;;;;0.98;0.50;;;;;;;;;;4920205;29;20063;-63
2023/05/05 04:35:57;;;;;;;1.98;0.40;;;;;;;;;;4902451;29;20063;-64
2023/05/05 04:38:27;;;;;;;3.55;1.00;;;;;;;;;;4904093;29;20552;-63
2023/05/05 04:40:59;;;;;;;2.63;0.70;;;;;;;;;;4913935;29;20055;-63
2023/05/05 04:43:29;;;;;;;1.33;0.55;;;;;;;;;;4913919;29;20071;-64
2023/05/05 04:45:59;;;;;;;3.17;0.63;;;;;;;;;;4929525;29;20067;-64
2023/05/05 04:48:33;;;;;;;2.40;0.60;;;;;;;;;;4928215;29;21142;-64
2023/05/05 04:51:06;;;;;;;3.67;0.40;;;;;;;;;;4914227;29;20060;-64
2023/05/05 04:53:37;;;;;;;1.75;0.47;;;;;;;;;;4904478;29;20052;-64
2023/05/05 04:56:07;;;;;;;1.67;0.40;;;;;;;;;;4866535;29;20056;-64
2023/05/05 04:58:39;;;;;;;2.47;0.88;;;;;;;;;;4857521;29;20068;-64
2023/05/05 05:01:09;;;;;;;9.05;0.73;;;;;;;;;;4854229;29;20407;-64
2023/05/05 05:03:39;;;;;;;3.80;0.55;;;;;;;;;;4839066;29;20058;-64
2023/05/05 05:06:10;;;;;;;1.23;0.52;;;;;;;;;;4839042;29;20053;-64
2023/05/05 05:08:40;;;;;;;2.15;0.50;;;;;;;;;;4857325;29;20064;-64
2023/05/05 05:11:10;;;;;;;1.88;0.45;;;;;;;;;;4848151;29;20064;-64
2023/05/05 05:13:40;;;;;;;10.27;0.70;;;;;;;;;;4866864;29;20049;-64
2023/05/05 05:16:10;;;;;;;12.43;0.70;;;;;;;;;;4876260;29;20073;-64
2023/05/05 05:18:40;;;;;;;1.90;0.82;;;;;;;;;;4875907;29;20567;-65
2023/05/05 05:21:10;;;;;;;3.67;0.40;;;;;;;;;;4922648;29;20048;-65
2023/05/05 05:23:40;;;;;;;4.80;0.60;;;;;;;;;;4932387;29;20522;-65
2023/05/05 05:26:10;;;;;;;2.05;0.57;;;;;;;;;;4919165;29;20056;-66
2023/05/05 05:28:41;;;;;;;2.97;0.60;;;;;;;;;;4894971;29;20532;-65
2023/05/05 05:31:11;;;;;;;3.15;0.60;;;;;;;;;;4889144;29;20772;-65
2023/05/05 05:33:42;;;;;;;0.85;0.45;;;;;;;;;;4866859;29;20053;-65
2023/05/05 05:36:14;;;;;;;2.80;0.65;;;;;;;;;;4883273;29;20133;-65
2023/05/05 05:38:44;;;;;;;8.10;0.65;;;;;;;;;;4875094;29;20064;-65
2023/05/05 05:41:15;;;;;;;0.82;0.30;;;;;;;;;;4880788;29;20055;-65
2023/05/05 05:43:46;;;;;;;1.58;0.52;;;;;;;;;;4875372;29;20053;-65
2023/05/05 05:46:17;;;;;;;4.15;0.50;;;;;;;;;;4893932;29;20068;-65
2023/05/05 05:48:49;;;;;;;2.38;0.60;;;;;;;;;;4913364;29;20064;-65
2023/05/05 05:51:20;;;;;;;5.50;0.63;;;;;;;;;;4934763;28;20051;-64
2023/05/05 05:53:51;;;;;;;2.40;0.55;;;;;;;;;;4970294;28;20061;-63
2023/05/05 05:56:24;;;;;;;6.50;0.50;;;;;;;;;;4970539;28;20066;-63
2023/05/05 05:58:55;;;;;;;1.00;0.50;;;;;;;;;;4950833;28;20082;-63
2023/05/05 06:01:25;;;;;;;1.52;0.52;;;;;;;;;;4950621;29;20051;-63
2023/05/05 06:03:55;;;;;;;3.13;0.50;;;;;;;;;;4940752;29;20496;-63
2023/05/05 06:06:26;;;;;;;1.02;0.40;;;;;;;;;;4931500;29;20052;-63
2023/05/05 06:08:56;;;;;;;2.67;0.50;;;;;;;;;;4900858;29;20063;-63
2023/05/05 06:11:27;;;;;;;4.97;0.50;;;;;;;;;;4941879;29;20051;-63
2023/05/05 06:13:57;;;;;;;2.08;0.47;;;;;;;;;;4969976;28;20443;-63
2023/05/05 06:16:27;;;;;;;3.03;0.50;;;;;;;;;;4934334;29;20058;-63
2023/05/05 06:19:01;;;;;;;1.92;0.52;;;;;;;;;;4924702;29;20060;-64
2023/05/05 06:21:31;;;;;;;1.52;0.50;;;;;;;;;;4911471;29;20059;-63
2023/05/05 06:24:01;;;;;;;1.92;0.60;;;;;;;;;;4893403;29;20048;-64
2023/05/05 06:26:32;;;;;;;0.90;0.35;;;;;;;;;;4880680;29;20444;-64
2023/05/05 06:29:02;;;;;;;3.28;0.52;;;;;;;;;;4922066;29;20056;-64
2023/05/05 06:31:32;;;;;;;6.22;0.45;;;;;;;;;;4930894;29;20048;-64
2023/05/05 06:34:02;;;;;;;5.07;0.47;;;;;;;;;;4915383;29;20052;-64
2023/05/05 06:36:32;;;;;;;1.40;0.40;;;;;;;;;;4915192;29;20067;-64
2023/05/05 06:39:02;;;;;;;4.90;0.68;;;;;;;;;;4940562;29;20063;-63
2023/05/05 06:41:32;;;;;;;1.15;0.43;;;;;;;;;;4934437;29;20055;-63
2023/05/05 06:44:03;;;;;;;4.78;0.50;;;;;;;;;;4959638;28;20523;-64
2023/05/05 06:46:33;;;;;;;1.25;0.75;;;;;;;;;;4969998;28;20058;-64
2023/05/05 06:49:04;;;;;;;2.92;0.60;;;;;;;;;;4969771;28;20062;-64
2023/05/05 06:51:34;;;;;;;2.95;0.60;;;;;;;;;;4979113;28;20066;-64
2023/05/05 06:54:05;;;;;;;2.85;0.55;;;;;;;;;;4975978;28;20045;-64
2023/05/05 06:56:35;;;;;;;2.78;0.50;;;;;;;;;;4995578;28;20058;-64
2023/05/05 06:59:05;;;;;;;2.35;0.70;;;;;;;;;;5012151;28;20065;-64
2023/05/05 07:01:35;;;;;;;4.70;0.63;;;;;;;;;;4998267;28;20056;-64
2023/05/05 07:04:05;;;;;;;3.05;0.55;;;;;;;;;;5067030;28;20502;-64
2023/05/05 07:06:35;;;;;;;2.65;0.50;;;;;;;;;;5090842;28;20055;-64
2023/05/05 07:09:05;;;;;;;3.20;0.80;;;;;;;;;;5090602;28;20040;-64
2023/05/05 07:11:36;;;;;;;1.55;0.70;;;;;;;;;;5091863;28;20059;-64
2023/05/05 07:14:06;;;;;;;3.97;0.50;;;;;;;;;;5072228;28;20060;-64
2023/05/05 07:16:36;;;;;;;3.65;0.60;;;;;;;;;;5072194;28;20056;-64
2023/05/05 07:19:07;;;;;;;2.53;1.10;;;;;;;;;;5072302;28;20060;-64
2023/05/05 07:21:38;;;;;;;2.53;1.77;;;;;;;;;;5071947;28;20643;-64
2023/05/05 07:24:08;;;;;;;4.75;1.20;;;;;;;;;;5022435;28;20091;-63
2023/05/05 07:26:38;;;;;;;5.50;1.38;;;;;;;;;;5005531;28;20411;-64
2023/05/05 07:29:08;;;;;;;4.80;1.25;;;;;;;;;;5038686;28;20040;-64
2023/05/05 07:31:38;;;;;;;2.97;1.30;;;;;;;;;;5055681;28;20056;-64
2023/05/05 07:34:08;;;;;;;2.63;1.40;;;;;;;;;;5023309;28;20060;-64
2023/05/05 07:36:38;;;;;;;5.40;1.70;;;;;;;;;;5088279;28;20530;-64
2023/05/05 07:39:08;;;;;;;6.43;1.90;;;;;;;;;;5075257;28;20052;-63
2023/05/05 07:41:38;;;;;;;3.63;1.50;;;;;;;;;;5092198;28;20052;-64
2023/05/05 07:44:08;;;;;;;4.60;2.08;;;;;;;;;;5092115;28;20040;-63
2023/05/05 07:46:38;;;;;;;5.40;2.22;;;;;;;;;;5091920;28;20052;-64
2023/05/05 07:49:08;;;;;;;5.05;2.28;;;;;;;;;;5058063;28;20432;-64
2023/05/05 07:51:38;;;;;;;6.47;2.17;;;;;;;;;;5074455;28;20055;-64
2023/05/05 07:54:08;;;;;;;5.30;2.30;;;;;;;;;;5091591;28;20056;-63
2023/05/05 07:56:38;;;;;;;5.63;2.28;;;;;;;;;;5091974;28;20508;-64
2023/05/05 07:59:09;;;;;;;4.88;2.08;;;;;;;;;;5058908;28;20048;-64
2023/05/05 08:01:40;;;;;;;5.85;2.28;;;;;;;;;;5092227;28;20052;-65
2023/05/05 08:04:10;;;;;;;7.22;2.08;;;;;;;;;;5058442;28;20079;-65
2023/05/05 08:06:41;;;;;;;5.78;1.95;;;;;;;;;;5058863;28;20063;-66
2023/05/05 08:09:11;;;;;;;4.15;1.92;;;;;;;;;;5074808;28;20060;-65
2023/05/05 08:11:41;;;;;;;5.68;2.00;;;;;;;;;;5041480;28;20052;-65
2023/05/05 08:14:11;;;;;;;8.02;2.17;;;;;;;;;;5057665;28;20056;-65
2023/05/05 08:16:41;;;;;;;4.68;2.83;;;;;;;;;;5041532;28;20388;-65
2023/05/05 08:19:11;;;;;;;5.13;2.38;;;;;;;;;;5091266;28;20048;-65
2023/05/05 08:21:56;;;;;;;7.90;2.30;;;;;;;;;;5057524;28;20063;-65
2023/05/05 08:24:28;;;;;;;;;;;;;;;;;;5094173;28;20055;-65
2023/05/05 08:26:58;;;;;;;4.35;2.03;;;;;;;;;;5114344;28;19919;-65
2023/05/05 08:29:28;;;;;;;5.63;2.15;;;;;;;;;;5078282;28;20047;-65
2023/05/05 08:31:58;;;;;;;6.68;2.50;;;;;;;;;;5061189;28;20044;-65
2023/05/05 08:34:28;;;;;;;4.15;2.00;;;;;;;;;;5113859;28;20051;-65
2023/05/05 08:36:58;;;;;;;5.85;2.15;;;;;;;;;;5131524;27;20047;-65
2023/05/05 08:39:29;;;;;;;4.18;2.05;;;;;;;;;;5097939;27;20054;-65
2023/05/05 08:41:59;;;;;;;3.80;1.95;;;;;;;;;;5134496;27;20494;-65
2023/05/05 08:44:29;;;;;;;5.70;2.00;;;;;;;;;;5134145;27;20054;-65
2023/05/05 08:47:00;;;;;;;5.70;1.90;;;;;;;;;;5097952;27;20047;-64
2023/05/05 08:49:44;;;;;;;6.10;2.13;;;;;;;;;;5134309;27;20043;-64
2023/05/05 08:52:21;;;;;;;5.38;2.30;;;;;;;;;;5134218;27;20047;-65
2023/05/05 08:54:59;;;;;;;4.88;2.35;;;;;;;;;;5080891;27;20054;-65
2023/05/05 08:57:47;;;;;;;4.30;2.00;;;;;;;;;;5083461;27;20522;-65
2023/05/05 09:00:19;;;;;;;8.90;2.10;;;;;;;;;;5048275;27;20054;-65
2023/05/05 09:02:50;;;;;;;4.53;2.33;;;;;;;;;;5064333;27;20051;-65
2023/05/05 09:05:21;;;;;;;4.80;2.45;;;;;;;;;;5080569;27;20047;-65
2023/05/05 09:07:51;;;;;;;4.07;1.33;;;;;;;;;;5133592;27;20418;-65
2023/05/05 09:10:21;;;;;;;3.67;1.58;;;;;;;;;;5110690;28;20047;-65
2023/05/05 09:12:51;;;;;;;4.97;1.63;;;;;;;;;;5110549;28;20054;-65
2023/05/05 09:15:21;;;;;;;2.90;0.93;;;;;;;;;;5110613;28;20063;-65
2023/05/05 09:17:51;;;;;;;6.28;1.90;;;;;;;;;;5110782;28;20060;-65
2023/05/05 09:20:21;;;;;;;2.13;0.70;;;;;;;;;;5110567;28;20046;-65
2023/05/05 09:22:52;;;;;;;2.70;0.50;;;;;;;;;;5059428;28;20555;-65
2023/05/05 09:25:22;;;;;;;1.60;0.68;;;;;;;;;;5061605;28;20422;-65
2023/05/05 09:27:53;;;;;;;1.33;0.80;;;;;;;;;;5060796;28;20063;-65
2023/05/05 09:30:25;;;;;;;3.10;1.27;;;;;;;;;;5077082;28;20059;-65
2023/05/05 09:32:55;;;;;;;3.63;1.88;;;;;;;;;;5076975;28;20121;-65
2023/05/05 09:35:26;;;;;;;3.28;1.48;;;;;;;;;;5060481;28;20052;-65
2023/05/05 09:38:10;;;;;;;3.72;0.70;;;;;;;;;;5055807;28;20455;-65
2023/05/05 09:40:50;;;;;;;3.65;0.90;;;;;;;;;;5072612;28;20048;-64
2023/05/05 09:43:22;;;;;;;1.92;0.65;;;;;;;;;;5089574;28;20063;-64
2023/05/05 09:46:06;;;;;;;2.53;1.23;;;;;;;;;;5039476;28;20063;-64
2023/05/05 09:48:36;;;;;;;3.28;1.08;;;;;;;;;;5024183;28;20055;-65
2023/05/05 09:51:06;;;;;;;6.32;1.20;;;;;;;;;;5019695;28;20135;-64
2023/05/05 09:53:41;;;;;;;1.77;1.00;;;;;;;;;;5020045;28;20057;-64
2023/05/05 09:56:11;;;;;;;2.67;0.85;;;;;;;;;;5068993;28;20056;-65
2023/05/05 09:58:41;;;;;;;6.30;1.52;;;;;;;;;;5018893;28;20052;-64
2023/05/05 10:01:24;;;;;;;4.70;2.33;;;;;;;;;;5068797;28;20084;-63
2023/05/05 10:03:54;;;;;;;4.32;1.50;;;;;;;;;;5068904;28;20040;-64
2023/05/05 10:06:47;;;;;;;9.13;1.95;;;;;;;;;;5051839;28;20060;-64
2023/05/05 10:09:17;;;;;;;4.32;1.40;;;;;;;;;;5051852;28;20052;-64
2023/05/05 10:11:47;;;;;;;4.22;1.30;;;;;;;;;;5052042;28;20055;-64
2023/05/05 10:14:18;;;;;;;3.58;1.25;;;;;;;;;;5068571;28;20052;-63
2023/05/05 10:16:51;;;;;;;5.93;1.13;;;;;;;;;;5132284;27;20362;-64
2023/05/05 10:19:22;;;;;;;5.05;1.30;;;;;;;;;;5132319;27;20053;-64
2023/05/05 10:21:58;;;;;;;4.03;1.30;;;;;;;;;;5062865;27;20398;-64
2023/05/05 10:24:56;;;;;;;3.15;1.13;;;;;;;;;;5096018;27;20047;-64
2023/05/05 10:27:28;;;;;;;1.75;1.00;;;;;;;;;;5078978;27;20050;-64
2023/05/05 10:30:06;;;;;;;1.80;0.60;;;;;;;;;;5132265;27;20051;-64
2023/05/05 10:32:46;;;;;;;2.90;0.80;;;;;;;;;;5095763;27;20058;-64
2023/05/05 10:35:29;;;;;;;;;;;;;;;;;;5047244;27;20051;-64
2023/05/05 10:38:00;;;;;;;5.70;0.85;;;;;;;;;;5132316;27;19926;-64
2023/05/05 10:40:32;;;;;;;2.80;0.85;;;;;;;;;;5117934;27;20066;-64
2023/05/05 10:43:04;;;;;;;3.03;1.40;;;;;;;;;;5076340;28;20043;-64
2023/05/05 10:45:34;;;;;;;2.08;1.00;;;;;;;;;;5110888;28;20395;-64
2023/05/05 10:48:10;;;;;;;2.53;1.13;;;;;;;;;;5110990;28;20043;-64
2023/05/05 10:50:49;;;;;;;2.42;1.23;;;;;;;;;;5058680;28;20052;-64
2023/05/05 10:53:28;;;;;;;4.22;1.02;;;;;;;;;;5051555;28;20799;-64
2023/05/05 10:56:16;;;;;;;3.85;1.00;;;;;;;;;;5068334;28;20056;-64
2023/05/05 10:58:46;;;;;;;2.70;1.02;;;;;;;;;;5034795;28;20055;-64
2023/05/05 11:01:30;;;;;;;1.90;0.90;;;;;;;;;;5068088;28;20044;-64
2023/05/05 11:04:20;;;;;;;3.05;1.17;;;;;;;;;;5036126;28;20053;-64
2023/05/05 11:07:08;;;;;;;2.33;0.88;;;;;;;;;;5068302;28;20051;-65
2023/05/05 11:10:04;;;;;;;2.42;0.85;;;;;;;;;;5029159;28;20052;-64
2023/05/05 11:12:58;;;;;;;2.72;0.93;;;;;;;;;;5036143;28;20077;-66
2023/05/05 11:15:36;;;;;;;5.28;1.00;;;;;;;;;;5025884;28;20112;-64
2023/05/05 11:18:06;;;;;;;2.83;1.00;;;;;;;;;;5010964;28;20505;-64
2023/05/05 11:20:39;;;;;;;3.15;0.90;;;;;;;;;;5027753;28;20061;-64
2023/05/05 11:23:09;;;;;;;4.30;2.47;;;;;;;;;;4994892;28;20060;-64
2023/05/05 11:25:44;;;;;;;;;;;;;;;;;;5025635;28;20545;-64
2023/05/05 11:28:17;;;;;;;11.05;4.68;;;;;;;;;;5027577;28;20403;-64
2023/05/05 11:33:35;;;;;;;8.55;3.95;;;;;;;;;;5028740;28;20064;-64
2023/05/05 11:36:08;;;;;;;11.35;4.22;;;;;;;;;;4995687;28;20057;-64
2023/05/05 11:39:06;;;;;;;9.55;4.20;;;;;;;;;;4995929;28;20057;-64
2023/05/05 11:42:13;;;;;;;12.38;4.80;;;;;;;;;;4969109;28;20414;-64
2023/05/05 11:44:44;;;;;;;18.73;4.68;;;;;;;;;;4936704;28;20050;-66
2023/05/05 11:47:14;;;;;;;15.70;4.10;;;;;;;;;;4969162;28;20055;-64
2023/05/05 11:49:44;;;;;;;16.17;3.85;;;;;;;;;;4999551;28;20203;-64
2023/05/05 11:52:15;;;;;;;10.32;3.72;;;;;;;;;;5009299;28;20060;-64
2023/05/05 11:54:48;;;;;;;9.82;3.00;;;;;;;;;;5047805;28;20064;-64
2023/05/05 11:57:26;;;;;;;11.32;3.55;;;;;;;;;;5048353;28;20552;-64
2023/05/05 12:00:02;;;;;;;10.10;3.78;;;;;;;;;;4979006;28;20046;-64
2023/05/05 12:02:33;;;;;;;13.35;3.30;;;;;;;;;;4947994;28;20485;-64
2023/05/05 12:05:03;;;;;;;13.18;3.20;;;;;;;;;;5011805;28;20546;-64
2023/05/05 12:07:33;;;;;;;12.75;3.10;;;;;;;;;;5015097;28;20053;-64
2023/05/05 12:10:04;;;;;;;7.22;2.97;;;;;;;;;;5021602;28;20085;-64
2023/05/05 12:12:38;;;;;;;11.80;2.75;;;;;;;;;;4994352;28;20045;-62
2023/05/05 12:15:10;;;;;;;8.77;2.88;;;;;;;;;;5011405;28;20049;-62
2023/05/05 12:17:44;;;;;;;8.07;2.90;;;;;;;;;;4972065;28;20515;-64
2023/05/05 12:20:14;;;;;;;5.85;3.13;;;;;;;;;;5026232;28;20441;-65
2023/05/05 12:22:46;;;;;;;12.68;3.63;;;;;;;;;;5031135;28;20061;-63
2023/05/05 12:25:16;;;;;;;12.73;3.55;;;;;;;;;;4998242;28;20097;-64
2023/05/05 12:27:52;;;;;;;8.48;3.40;;;;;;;;;;4999059;28;20053;-63
2023/05/05 12:30:22;;;;;;;7.22;3.40;;;;;;;;;;4998285;28;20049;-65
2023/05/05 12:33:06;;;;;;;10.35;3.75;;;;;;;;;;4997964;28;20061;-64
2023/05/05 12:35:37;;;;;;;9.00;3.95;;;;;;;;;;5014288;28;20161;-63
2023/05/05 12:38:07;;;;;;;11.93;4.38;;;;;;;;;;5039346;28;20057;-62
2023/05/05 12:40:48;;;;;;;8.98;4.38;;;;;;;;;;5050637;28;20045;-64
2023/05/05 12:43:31;;;;;;;9.18;3.30;;;;;;;;;;5050576;28;20049;-64
2023/05/05 12:46:10;;;;;;;11.40;3.97;;;;;;;;;;5037028;28;20536;-64
2023/05/05 12:48:44;;;;;;;7.40;3.40;;;;;;;;;;5037222;28;20060;-64
2023/05/05 12:51:18;;;;;;;13.77;3.78;;;;;;;;;;5070918;28;20044;-65
2023/05/05 12:54:04;;;;;;;8.85;4.55;;;;;;;;;;5070783;28;20056;-64
2023/05/05 12:56:39;;;;;;;17.63;8.35;;;;;;;;;;5020277;28;20060;-65
2023/05/05 12:59:29;;;;;;;6.75;3.10;;;;;;;;;;5020485;28;20052;-63
2023/05/05 13:02:02;;;;;;;5.32;2.33;;;;;;;;;;5036910;28;20519;-64
2023/05/05 13:04:33;;;;;;;34.90;18.70;;;;;;;;;;5070269;28;20377;-64
2023/05/05 13:07:11;;;;;;;67.60;36.97;;;;;;;;;;5036527;28;20397;-64
2023/05/05 13:09:42;;;;;;;29.63;16.02;;;;;;;;;;5082829;28;20056;-64
2023/05/05 13:12:12;;;;;;;36.70;19.27;;;;;;;;;;5040049;28;20052;-64
2023/05/05 13:14:43;;;;;;;9.27;3.70;;;;;;;;;;5097348;28;20047;-65
2023/05/05 13:17:13;;;;;;;6.10;1.92;;;;;;;;;;5060013;28;20526;-64
2023/05/05 13:19:47;;;;;;;6.00;2.45;;;;;;;;;;5090291;28;20048;-64
2023/05/05 13:22:17;;;;;;;8.30;3.47;;;;;;;;;;5090036;28;20067;-63
2023/05/05 13:24:48;;;;;;;9.55;2.50;;;;;;;;;;5080270;28;20535;-65
2023/05/05 13:27:36;;;;;;;4.70;1.90;;;;;;;;;;5091973;28;20043;-63
2023/05/05 13:30:07;;;;;;;2.58;1.15;;;;;;;;;;5056559;28;20062;-64
2023/05/05 13:32:37;;;;;;;8.82;5.63;;;;;;;;;;5056751;28;20067;-64
2023/05/05 13:35:08;;;;;;;3.88;1.52;;;;;;;;;;5032415;28;20045;-64
2023/05/05 13:37:40;;;;;;;2.03;1.20;;;;;;;;;;5049343;28;20183;-64
2023/05/05 13:40:12;;;;;;;2.60;1.33;;;;;;;;;;5015921;28;20045;-64
2023/05/05 13:42:42;;;;;;;4.20;1.20;;;;;;;;;;5016316;28;20068;-64
2023/05/05 13:45:13;;;;;;;4.07;1.38;;;;;;;;;;4963941;28;20050;-65
2023/05/05 13:47:43;;;;;;;4.45;1.42;;;;;;;;;;5029357;28;20157;-64
2023/05/05 13:50:14;;;;;;;9.18;3.42;;;;;;;;;;5028336;28;20045;-64
2023/05/05 13:52:44;;;;;;;4.20;1.40;;;;;;;;;;5029288;28;20057;-65
2023/05/05 13:55:14;;;;;;;6.90;1.85;;;;;;;;;;5029383;28;20405;-64
2023/05/05 13:57:44;;;;;;;4.28;1.45;;;;;;;;;;5029165;28;20432;-63
2023/05/05 14:00:14;;;;;;;4.43;1.20;;;;;;;;;;5012621;28;20057;-64
2023/05/05 14:02:44;;;;;;;5.70;1.60;;;;;;;;;;5009406;28;20058;-64
2023/05/05 14:05:15;;;;;;;2.70;1.52;;;;;;;;;;5009389;28;20071;-64
2023/05/05 14:07:46;;;;;;;3.95;1.45;;;;;;;;;;5009478;28;20058;-63
2023/05/05 14:10:16;;;;;;;1.60;0.98;;;;;;;;;;4976722;28;20437;-63
2023/05/05 14:12:46;;;;;;;5.05;1.33;;;;;;;;;;5039030;28;20060;-63
2023/05/05 14:15:18;;;;;;;3.72;1.50;;;;;;;;;;4988483;28;20048;-63
2023/05/05 14:17:48;;;;;;;6.38;1.30;;;;;;;;;;5068639;28;20041;-63
2023/05/05 14:20:20;;;;;;;3.00;1.10;;;;;;;;;;5068846;28;20068;-63
2023/05/05 14:22:51;;;;;;;2.30;1.13;;;;;;;;;;5068390;28;20057;-63
2023/05/05 14:25:21;;;;;;;2.55;1.35;;;;;;;;;;5048362;28;20392;-64
2023/05/05 14:27:51;;;;;;;3.58;1.48;;;;;;;;;;4998923;28;20053;-63
2023/05/05 14:30:21;;;;;;;2.65;1.45;;;;;;;;;;5015206;28;20048;-64
2023/05/05 14:32:51;;;;;;;3.88;1.58;;;;;;;;;;4999657;28;20053;-63
2023/05/05 14:35:21;;;;;;;6.53;3.20;;;;;;;;;;5049805;28;20133;-64
2023/05/05 14:37:52;;;;;;;5.18;1.95;;;;;;;;;;5068261;28;20060;-64
2023/05/05 14:40:22;;;;;;;5.63;1.80;;;;;;;;;;5068384;28;20063;-64
2023/05/05 14:42:52;;;;;;;4.88;1.60;;;;;;;;;;5018667;28;20064;-63
2023/05/05 14:45:23;;;;;;;3.65;2.20;;;;;;;;;;5035101;28;20049;-63
2023/05/05 14:47:53;;;;;;;3.92;1.60;;;;;;;;;;5068096;28;20048;-64
2023/05/05 14:50:23;;;;;;;4.00;1.52;;;;;;;;;;5067946;28;20155;-64
2023/05/05 14:52:52;;;;;;;2.63;1.70;;;;;;;;;;5068128;28;20048;-64
2023/05/05 14:55:23;;;;;;;5.55;1.75;;;;;;;;;;5051711;28;20052;-63
2023/05/05 14:57:53;;;;;;;2.95;1.63;;;;;;;;;;5051259;28;20552;-62
2023/05/05 15:00:25;;;;;;;3.58;1.83;;;;;;;;;;5051559;28;20063;-62
2023/05/05 15:02:55;;;;;;;4.65;2.03;;;;;;;;;;5044919;28;20071;-62
2023/05/05 15:05:25;;;;;;;3.17;1.70;;;;;;;;;;5071342;28;20048;-63
2023/05/05 15:07:56;;;;;;;3.97;1.75;;;;;;;;;;5090430;28;20047;-62
2023/05/05 15:10:26;;;;;;;3.70;1.80;;;;;;;;;;5090493;28;20059;-62
2023/05/05 15:12:56;;;;;;;4.18;2.35;;;;;;;;;;5071401;28;20594;-63
2023/05/05 15:15:26;;;;;;;6.18;2.00;;;;;;;;;;5090572;28;20490;-62
2023/05/05 15:17:56;;;;;;;2.50;1.52;;;;;;;;;;5071220;28;20522;-63
2023/05/05 15:20:27;;;;;;;3.28;2.33;;;;;;;;;;5071353;28;20044;-63